Time;durP1;ratioP1;P1;durP2;ratioP2;P2;SDS_P1;SDS_P2;PMS_P1;PMS_P2;Temp;Humidity;BMP_temperature;BMP_pressure;BME280_temperature;BME280_humidity;BME280_pressure;Samples;Min_cycle;Max_cycle;Signal;HPM_P1;HPM_P2
2021/11/26 00:00:30;;;;;;;903.20;845.33;;;;;;;17.81;44.16;102401.91;5050768;28;20029;-30
2021/11/26 00:02:56;;;;;;;899.72;841.13;;;;;;;17.94;44.45;102431.22;5033275;28;20020;-33
2021/11/26 00:05:22;;;;;;;885.15;828.22;;;;;;;17.80;44.58;102402.00;5051730;28;20035;-30
2021/11/26 00:07:48;;;;;;;872.40;816.28;;;;;;;17.94;44.32;102420.59;5039747;28;20033;-33
2021/11/26 00:10:14;;;;;;;900.45;842.42;;;;;;;17.89;44.47;102413.88;5052497;28;20040;-32
2021/11/26 00:12:49;;;;;;;884.83;827.78;;;;;;;17.94;44.34;102425.06;5068025;28;20561;-33
2021/11/26 00:15:26;;;;;;;879.10;823.00;;;;;;;17.86;44.34;102415.78;5041629;28;20045;-30
2021/11/26 00:17:55;;;;;;;876.45;820.10;;;;;;;17.94;44.20;102436.56;5045498;28;20032;-34
2021/11/26 00:20:21;;;;;;;881.55;825.15;;;;;;;17.83;44.36;102407.13;5041308;28;20087;-32
2021/11/26 00:22:47;;;;;;;879.70;823.65;;;;;;;17.93;44.40;102439.34;5041394;28;20315;-34
2021/11/26 00:25:13;;;;;;;892.65;834.88;;;;;;;17.93;44.35;102436.69;5047231;28;20037;-33
2021/11/26 00:27:40;;;;;;;910.10;851.38;;;;;;;17.93;44.40;102442.84;5052532;28;20037;-32
2021/11/26 00:30:07;;;;;;;895.22;836.65;;;;;;;17.93;44.54;102434.03;5049769;28;20466;-30
2021/11/26 00:32:33;;;;;;;866.78;811.35;;;;;;;17.94;44.47;102441.03;5049891;28;20044;-34
2021/11/26 00:34:59;;;;;;;889.40;832.38;;;;;;;17.94;44.43;102433.03;5052603;28;20056;-31
2021/11/26 00:37:25;;;;;;;874.95;819.25;;;;;;;17.84;44.48;102416.81;5053561;28;20075;-31
2021/11/26 00:39:52;;;;;;;886.00;829.67;;;;;;;17.92;44.54;102432.28;5048778;28;20025;-33
2021/11/26 00:42:18;;;;;;;888.03;830.97;;;;;;;17.92;44.69;102441.13;5065452;28;20513;-33
2021/11/26 00:44:44;;;;;;;882.45;826.00;;;;;;;17.83;44.77;102415.94;5052635;28;20370;-33
2021/11/26 00:47:10;;;;;;;876.42;820.75;;;;;;;17.93;44.72;102434.03;5042005;28;20041;-31
2021/11/26 00:49:36;;;;;;;881.17;825.05;;;;;;;17.93;44.82;102436.69;5051670;28;20033;-32
2021/11/26 00:52:03;;;;;;;890.33;832.78;;;;;;;17.95;44.75;102438.28;5047541;28;20025;-36
2021/11/26 00:54:29;;;;;;;903.45;844.80;;;;;;;17.95;44.73;102435.63;5054685;28;20523;-31
2021/11/26 00:56:55;;;;;;;882.70;826.22;;;;;;;17.82;44.77;102432.84;5057171;28;20025;-30
2021/11/26 00:59:21;;;;;;;926.53;865.63;;;;;;;17.91;44.95;102452.72;5054125;28;20116;-32
2021/11/26 01:01:48;;;;;;;897.10;839.45;;;;;;;17.90;44.85;102455.47;5049411;28;20477;-35
2021/11/26 01:04:14;;;;;;;897.97;840.25;;;;;;;17.85;45.12;102443.34;5055619;28;20028;-33
2021/11/26 01:06:40;;;;;;;893.85;835.78;;;;;;;17.84;44.88;102443.41;5055246;28;20032;-30
2021/11/26 01:09:06;;;;;;;917.58;858.20;;;;;;;17.87;44.91;102448.53;5052088;28;20036;-32
2021/11/26 01:11:32;;;;;;;912.33;853.05;;;;;;;17.85;44.98;102451.31;5046381;28;20037;-31
2021/11/26 01:13:58;;;;;;;911.63;852.03;;;;;;;17.88;44.86;102454.72;5055403;28;20032;-31
2021/11/26 01:16:25;;;;;;;884.65;827.55;;;;;;;17.88;44.98;102455.56;5056347;28;20466;-31
2021/11/26 01:18:51;;;;;;;854.50;799.25;;;;;;;17.89;45.01;102451.97;5055352;28;20024;-30
2021/11/26 01:21:17;;;;;;;913.70;854.92;;;;;;;17.88;44.94;102450.25;5055668;28;20087;-30
2021/11/26 01:23:43;;;;;;;915.13;855.20;;;;;;;17.90;44.91;102456.31;5046551;28;20021;-31
2021/11/26 01:26:09;;;;;;;893.22;834.97;;;;;;;17.86;45.22;102449.50;5047089;28;20033;-31
2021/11/26 01:28:35;;;;;;;906.08;847.35;;;;;;;17.88;44.99;102449.41;5050169;28;20084;-33
2021/11/26 01:31:02;;;;;;;911.17;852.67;;;;;;;17.86;45.20;102441.53;5057857;28;20029;-31
2021/11/26 01:33:28;;;;;;;917.13;857.72;;;;;;;17.89;44.87;102451.09;5051725;28;20025;-30
2021/11/26 01:35:55;;;;;;;925.08;865.00;;;;;;;17.87;44.89;102451.19;5052779;28;20031;-36
2021/11/26 01:38:21;;;;;;;912.75;853.30;;;;;;;17.79;45.09;102433.03;5053187;28;20426;-30
2021/11/26 01:40:47;;;;;;;894.13;836.28;;;;;;;17.71;45.04;102421.19;5043236;28;20032;-32
2021/11/26 01:43:16;;;;;;;868.05;811.95;;;;;;;17.86;45.32;102447.69;5052549;28;20020;-34
2021/11/26 01:45:50;;;;;;;869.33;813.40;;;;;;;17.85;45.21;102451.31;5066118;28;20028;-31
2021/11/26 01:48:17;;;;;;;861.35;806.40;;;;;;;17.79;45.09;102437.50;5056364;28;20032;-32
2021/11/26 01:50:44;;;;;;;913.40;854.25;;;;;;;17.88;44.98;102449.41;5037500;28;20355;-31
2021/11/26 01:53:10;;;;;;;908.95;850.17;;;;;;;17.88;44.90;102449.41;5054937;28;20033;-31
2021/11/26 01:55:36;;;;;;;897.10;839.05;;;;;;;17.73;45.01;102432.56;5052707;28;20025;-31
2021/11/26 01:58:02;;;;;;;898.55;840.05;;;;;;;17.73;44.97;102414.84;5045773;28;20036;-33
2021/11/26 02:00:30;;;;;;;928.88;868.05;;;;;;;17.82;45.15;102435.50;5043393;28;20056;-31
2021/11/26 02:02:57;;;;;;;916.08;856.45;;;;;;;17.85;45.00;102434.44;5052829;28;20035;-31
2021/11/26 02:05:23;;;;;;;879.17;822.35;;;;;;;17.89;45.13;102443.13;5054281;28;20049;-30
2021/11/26 02:07:50;;;;;;;861.90;807.00;;;;;;;17.88;45.06;102444.09;5051779;28;20466;-31
2021/11/26 02:10:16;;;;;;;906.35;847.53;;;;;;;17.67;44.95;102399.28;5050354;28;20128;-31
2021/11/26 02:12:42;;;;;;;917.85;858.97;;;;;;;17.85;45.05;102427.38;5037766;28;20472;-32
2021/11/26 02:15:09;;;;;;;921.75;861.97;;;;;;;17.78;45.07;102410.09;5051912;28;20033;-32
2021/11/26 02:17:35;;;;;;;906.35;847.08;;;;;;;17.85;44.82;102424.72;5054564;28;20082;-30
2021/11/26 02:20:03;;;;;;;932.15;871.25;;;;;;;17.83;44.77;102429.22;5052342;28;20028;-30
2021/11/26 02:22:29;;;;;;;921.90;862.08;;;;;;;17.82;44.96;102424.88;5055103;28;20438;-34
2021/11/26 02:24:55;;;;;;;923.17;863.05;;;;;;;17.81;45.03;102425.81;5054232;28;20037;-32
2021/11/26 02:27:21;;;;;;;924.15;864.33;;;;;;;17.80;44.91;102434.75;5054463;28;20036;-30
2021/11/26 02:29:54;;;;;;;916.70;857.22;;;;;;;17.83;44.93;102436.34;5055125;28;20078;-31
2021/11/26 02:32:21;;;;;;;890.53;833.40;;;;;;;17.83;44.94;102441.69;5049805;28;20029;-36
2021/11/26 02:34:47;;;;;;;878.17;822.08;;;;;;;17.80;44.90;102436.53;5052578;28;20386;-33
2021/11/26 02:37:13;;;;;;;924.00;863.47;;;;;;;17.81;44.79;102443.59;5053245;28;20044;-33
2021/11/26 02:39:39;;;;;;;924.53;863.53;;;;;;;17.78;44.75;102436.66;5055172;28;20037;-33
2021/11/26 02:42:06;;;;;;;926.95;866.83;;;;;;;17.81;44.82;102449.75;5037678;28;20082;-32
2021/11/26 02:44:32;;;;;;;928.85;868.25;;;;;;;17.78;44.86;102443.75;5053747;28;20024;-33
2021/11/26 02:46:58;;;;;;;960.83;897.47;;;;;;;17.65;44.94;102422.44;5066714;28;20025;-32
2021/11/26 02:49:24;;;;;;;909.85;850.53;;;;;;;17.76;44.87;102451.81;5061412;28;20036;-30
2021/11/26 02:51:50;;;;;;;931.13;870.42;;;;;;;17.78;44.92;102454.41;5044801;28;20056;-33
2021/11/26 02:54:17;;;;;;;932.72;871.65;;;;;;;17.76;44.95;102456.31;5048050;28;20044;-32
2021/11/26 02:56:43;;;;;;;927.40;866.28;;;;;;;17.75;44.85;102455.47;5048776;28;20029;-32
2021/11/26 02:59:09;;;;;;;939.78;877.90;;;;;;;17.77;44.80;102455.38;5046963;28;20037;-35
2021/11/26 03:01:36;;;;;;;925.42;865.90;;;;;;;17.78;45.00;102454.41;5046012;28;20111;-31
2021/11/26 03:04:02;;;;;;;922.40;862.53;;;;;;;17.79;44.84;102469.41;5050377;28;20064;-33
2021/11/26 03:06:28;;;;;;;905.90;847.40;;;;;;;17.79;44.72;102470.25;5052099;28;20027;-32
2021/11/26 03:08:54;;;;;;;894.33;837.05;;;;;;;17.78;44.89;102478.31;5048960;28;20227;-30
2021/11/26 03:11:20;;;;;;;896.13;837.80;;;;;;;17.78;44.91;102480.97;5054581;28;20033;-32
2021/11/26 03:13:46;;;;;;;933.47;872.30;;;;;;;17.56;44.82;102433.66;5050127;28;20103;-33
2021/11/26 03:16:13;;;;;;;939.72;878.58;;;;;;;17.49;44.84;102427.84;5051299;28;20036;-29
2021/11/26 03:18:39;;;;;;;931.60;870.28;;;;;;;17.72;44.82;102463.59;5051522;28;20025;-30
2021/11/26 03:21:05;;;;;;;914.55;855.58;;;;;;;17.70;44.87;102457.53;5046231;28;20033;-31
2021/11/26 03:23:31;;;;;;;914.20;854.20;;;;;;;17.71;44.90;102453.91;5050575;28;20028;-30
2021/11/26 03:25:57;;;;;;;895.22;836.53;;;;;;;17.68;44.78;102449.66;5049724;28;20218;-33
2021/11/26 03:28:24;;;;;;;890.50;833.10;;;;;;;17.70;44.94;102446.91;5050490;28;20021;-31
2021/11/26 03:30:50;;;;;;;911.13;852.25;;;;;;;17.72;44.78;102445.00;5058306;28;20355;-30
2021/11/26 03:33:16;;;;;;;935.08;872.83;;;;;;;17.40;44.68;102389.44;5047725;28;20359;-33
2021/11/26 03:35:42;;;;;;;964.33;900.22;;;;;;;17.74;44.73;102451.06;5042461;28;20033;-36
2021/11/26 03:38:09;;;;;;;912.40;853.50;;;;;;;17.70;44.67;102438.94;5043111;28;20036;-34
2021/11/26 03:40:35;;;;;;;943.28;880.60;;;;;;;17.63;44.84;102441.13;5054221;28;20032;-33
2021/11/26 03:43:01;;;;;;;916.22;856.88;;;;;;;17.71;44.76;102445.94;5053741;28;20021;-31
2021/11/26 03:45:28;;;;;;;937.00;874.75;;;;;;;17.64;44.77;102432.22;5050074;28;20412;-35
2021/11/26 03:47:55;;;;;;;1024.65;934.17;;;;;;;17.70;44.66;102446.06;5049403;28;20339;-31
2021/11/26 03:50:21;;;;;;;921.97;861.42;;;;;;;17.68;44.76;102443.50;5051497;28;20028;-34
2021/11/26 03:52:47;;;;;;;916.63;856.67;;;;;;;17.65;44.88;102449.00;5052354;28;20025;-33
2021/11/26 03:55:15;;;;;;;894.00;836.63;;;;;;;17.65;44.86;102449.00;5052007;28;20366;-34
2021/11/26 03:57:41;;;;;;;923.67;864.30;;;;;;;17.53;44.73;102428.50;5052632;28;20060;-30
2021/11/26 04:00:09;;;;;;;931.80;871.15;;;;;;;17.67;44.75;102444.44;5049251;28;20035;-30
2021/11/26 04:02:35;;;;;;;938.78;877.10;;;;;;;17.70;44.77;102456.69;5050411;28;20051;-32
2021/11/26 04:05:01;;;;;;;894.03;836.42;;;;;;;17.67;44.75;102466.53;5052234;28;20025;-33
2021/11/26 04:07:27;;;;;;;915.60;856.38;;;;;;;17.67;44.72;102463.03;5051789;28;20104;-30
2021/11/26 04:09:53;;;;;;;980.00;908.95;;;;;;;17.64;44.79;102461.44;5040101;28;20144;-30
2021/11/26 04:12:20;;;;;;;905.80;847.33;;;;;;;17.42;44.87;102424.72;5052671;28;20049;-30
2021/11/26 04:14:52;;;;;;;897.30;839.28;;;;;;;17.62;44.87;102454.50;5066170;28;20028;-30
2021/11/26 04:17:18;;;;;;;948.53;886.15;;;;;;;17.64;44.74;102457.91;5052986;28;20029;-31
2021/11/26 04:19:45;;;;;;;915.78;856.85;;;;;;;17.65;44.72;102457.81;5053859;28;20029;-33
2021/11/26 04:22:11;;;;;;;886.38;829.63;;;;;;;17.64;44.68;102458.78;5055370;28;20086;-36
2021/11/26 04:24:37;;;;;;;922.15;862.53;;;;;;;17.65;44.83;102475.56;5045739;28;20028;-32
2021/11/26 04:27:03;;;;;;;896.35;838.55;;;;;;;17.67;44.65;102478.97;5054591;28;20348;-34
2021/11/26 04:29:30;;;;;;;889.88;832.25;;;;;;;17.65;44.62;102487.03;5050532;28;20021;-30
2021/11/26 04:31:56;;;;;;;909.65;850.67;;;;;;;17.63;44.81;102478.31;5045483;28;20021;-34
2021/11/26 04:34:22;;;;;;;920.20;860.38;;;;;;;17.61;44.85;102480.22;5054548;28;20463;-34
2021/11/26 04:36:48;;;;;;;889.28;832.15;;;;;;;17.59;44.89;102478.63;5049817;28;20654;-30
2021/11/26 04:39:14;;;;;;;911.45;852.80;;;;;;;17.58;44.94;102479.56;5052813;28;20036;-30
2021/11/26 04:41:40;;;;;;;896.83;838.63;;;;;;;17.51;44.94;102463.13;5055014;28;20039;-32
2021/11/26 04:44:07;;;;;;;904.75;846.47;;;;;;;17.55;44.86;102469.13;5057875;28;20447;-33
2021/11/26 04:46:33;;;;;;;946.03;882.25;;;;;;;17.55;44.93;102464.69;5049413;28;20030;-31
2021/11/26 04:48:59;;;;;;;918.40;858.63;;;;;;;17.53;44.88;102457.72;5039877;28;20029;-30
2021/11/26 04:51:25;;;;;;;915.13;856.05;;;;;;;17.58;44.69;102474.25;5056438;28;20040;-34
2021/11/26 04:53:51;;;;;;;964.90;900.70;;;;;;;17.57;44.82;102478.72;5051404;28;20444;-35
2021/11/26 04:56:17;;;;;;;905.35;846.80;;;;;;;17.57;44.79;102475.19;5056259;28;20028;-30
2021/11/26 04:58:43;;;;;;;907.17;847.58;;;;;;;17.58;44.82;102475.09;5057322;28;20562;-34
2021/11/26 05:01:10;;;;;;;908.58;849.97;;;;;;;17.56;44.82;102481.47;5056195;28;20344;-30
2021/11/26 05:03:36;;;;;;;922.65;862.97;;;;;;;17.54;44.85;102480.72;5056962;28;20029;-32
2021/11/26 05:06:02;;;;;;;907.80;848.85;;;;;;;17.53;44.91;102485.13;5048127;28;20033;-31
2021/11/26 05:08:28;;;;;;;947.78;884.92;;;;;;;17.52;44.80;102486.09;5056047;28;20037;-31
2021/11/26 05:10:55;;;;;;;908.80;850.40;;;;;;;17.50;44.81;102477.38;5052967;28;20033;-32
2021/11/26 05:13:23;;;;;;;914.85;855.70;;;;;;;17.44;44.90;102462.66;5048884;28;20071;-35
2021/11/26 05:15:49;;;;;;;897.13;839.33;;;;;;;17.39;44.90;102461.22;5070030;28;20035;-31
2021/11/26 05:18:16;;;;;;;902.28;844.67;;;;;;;17.43;44.94;102470.75;5048592;28;20029;-36
2021/11/26 05:20:42;;;;;;;938.58;878.25;;;;;;;17.50;44.83;102480.03;5048539;28;20032;-34
2021/11/26 05:23:10;;;;;;;881.50;825.45;;;;;;;17.51;44.89;102472.91;5044498;28;20033;-33
2021/11/26 05:25:36;;;;;;;876.58;819.90;;;;;;;17.44;44.90;102462.66;5038232;28;20029;-30
2021/11/26 05:28:02;;;;;;;907.97;850.03;;;;;;;17.52;44.80;102477.25;5040453;28;20040;-33
2021/11/26 05:30:29;;;;;;;888.08;830.88;;;;;;;17.51;44.79;102470.25;5050701;28;20662;-33
2021/11/26 05:32:55;;;;;;;902.40;844.20;;;;;;;17.49;44.90;102478.31;5051026;28;20033;-37
2021/11/26 05:35:21;;;;;;;915.95;856.75;;;;;;;17.47;44.82;102472.25;5053723;28;20021;-30
2021/11/26 05:37:47;;;;;;;904.78;846.50;;;;;;;17.39;44.92;102462.09;5045960;28;20037;-30
2021/11/26 05:40:14;;;;;;;889.03;832.70;;;;;;;17.39;44.93;102458.56;5059244;28;20025;-30
2021/11/26 05:42:41;;;;;;;903.35;844.78;;;;;;;17.47;44.94;102466.94;5058445;28;20024;-35
2021/11/26 05:45:08;;;;;;;888.70;831.15;;;;;;;17.41;44.88;102465.53;5051000;28;20371;-32
2021/11/26 05:47:34;;;;;;;914.00;854.88;;;;;;;17.44;44.92;102469.78;5053495;28;20107;-35
2021/11/26 05:50:02;;;;;;;907.65;849.47;;;;;;;17.00;44.76;102412.25;5051280;28;20017;-31
2021/11/26 05:52:28;;;;;;;853.58;798.95;;;;;;;17.45;44.92;102466.19;5056361;28;20163;-39
2021/11/26 05:54:54;;;;;;;890.05;832.05;;;;;;;17.41;45.36;102465.53;5053787;28;20029;-31
2021/11/26 05:57:20;;;;;;;882.63;825.72;;;;;;;17.45;45.09;102466.19;5053281;28;20032;-35
2021/11/26 05:59:46;;;;;;;883.67;825.92;;;;;;;17.46;45.55;102466.09;5049749;28;20025;-39
2021/11/26 06:02:13;;;;;;;888.00;830.45;;;;;;;17.46;45.32;102475.84;5050784;28;20040;-35
2021/11/26 06:04:39;;;;;;;874.13;817.25;;;;;;;17.00;45.25;102410.47;5048777;28;20028;-35
2021/11/26 06:07:05;;;;;;;894.15;836.50;;;;;;;17.49;45.15;102471.19;5049406;28;20455;-33
2021/11/26 06:09:31;;;;;;;875.05;818.53;;;;;;;17.52;45.01;102485.22;5049447;28;20032;-34
2021/11/26 06:11:57;;;;;;;895.78;837.60;;;;;;;17.53;45.25;102486.94;5048506;28;20320;-32
2021/11/26 06:14:24;;;;;;;892.55;834.75;;;;;;;17.49;45.33;102491.59;5044106;28;20028;-32
2021/11/26 06:16:50;;;;;;;871.10;815.30;;;;;;;17.51;44.95;102496.81;5054171;28;20478;-35
2021/11/26 06:19:16;;;;;;;900.33;842.10;;;;;;;17.47;45.09;102488.19;5055593;28;20442;-32
2021/11/26 06:21:42;;;;;;;903.15;845.30;;;;;;;17.46;45.25;102487.34;5045136;28;20029;-32
2021/11/26 06:24:08;;;;;;;890.78;832.67;;;;;;;17.42;45.22;102484.97;5052881;28;20037;-32
2021/11/26 06:26:34;;;;;;;899.13;841.78;;;;;;;17.40;45.09;102485.03;5051880;28;20025;-37
2021/11/26 06:29:01;;;;;;;881.17;824.17;;;;;;;17.41;45.19;102481.44;5055358;28;20056;-32
2021/11/26 06:31:27;;;;;;;867.58;812.40;;;;;;;17.26;45.10;102464.63;5044181;28;20023;-34
2021/11/26 06:33:53;;;;;;;875.92;819.70;;;;;;;16.72;44.96;102397.97;5055409;28;20037;-31
2021/11/26 06:36:19;;;;;;;882.08;825.85;;;;;;;17.44;45.05;102491.88;5053364;28;20063;-36
2021/11/26 06:38:45;;;;;;;852.17;797.35;;;;;;;17.40;45.09;102492.16;5063883;28;20024;-33
2021/11/26 06:41:12;;;;;;;891.20;833.47;;;;;;;17.39;45.02;102491.31;5067523;28;20028;-33
2021/11/26 06:43:38;;;;;;;900.63;842.65;;;;;;;17.34;45.16;102482.78;5047380;28;20044;-35
2021/11/26 06:46:04;;;;;;;879.95;823.65;;;;;;;17.35;45.26;102476.50;5047760;28;20389;-38
2021/11/26 06:48:31;;;;;;;858.90;804.08;;;;;;;17.36;45.22;102472.91;5050454;28;20025;-34
2021/11/26 06:50:57;;;;;;;875.33;819.70;;;;;;;17.05;45.14;102424.31;5048719;28;20446;-33
2021/11/26 06:53:23;;;;;;;874.10;817.80;;;;;;;17.34;45.13;102469.50;5044329;28;20033;-33
2021/11/26 06:55:50;;;;;;;891.85;834.90;;;;;;;17.38;45.00;102471.00;5063660;28;20043;-33
2021/11/26 06:58:16;;;;;;;890.45;833.45;;;;;;;17.39;45.04;102467.41;5046977;28;20104;-34
2021/11/26 07:00:42;;;;;;;869.65;814.05;;;;;;;17.38;45.02;102472.81;5048176;28;20025;-35
2021/11/26 07:03:08;;;;;;;892.75;835.33;;;;;;;17.34;45.08;102482.78;5048600;28;20037;-32
2021/11/26 07:05:34;;;;;;;888.17;830.78;;;;;;;17.32;44.99;102476.72;5045046;28;20040;-32
2021/11/26 07:08:01;;;;;;;878.10;821.88;;;;;;;17.32;45.18;102474.06;5039477;28;20117;-32
2021/11/26 07:10:27;;;;;;;879.67;823.38;;;;;;;17.30;45.27;102478.56;5048824;28;20020;-34
2021/11/26 07:12:53;;;;;;;892.85;834.67;;;;;;;17.28;45.16;102480.47;5049990;28;20455;-36
2021/11/26 07:15:19;;;;;;;891.22;834.28;;;;;;;17.29;45.23;102482.19;5050375;28;20431;-33
2021/11/26 07:17:46;;;;;;;868.55;812.28;;;;;;;17.26;45.14;102474.41;5050500;28;20128;-32
2021/11/26 07:20:12;;;;;;;870.53;814.67;;;;;;;17.28;45.14;102467.19;5047840;28;20055;-31
2021/11/26 07:22:38;;;;;;;874.65;819.33;;;;;;;17.29;45.09;102463.59;5048891;28;20029;-32
2021/11/26 07:25:06;;;;;;;887.63;830.72;;;;;;;17.30;45.19;102475.91;5047972;28;20033;-32
2021/11/26 07:27:32;;;;;;;858.58;803.67;;;;;;;17.27;45.29;102479.63;5049749;28;20029;-33
2021/11/26 07:29:58;;;;;;;857.95;803.00;;;;;;;17.27;45.21;102468.16;5048272;28;20073;-34
2021/11/26 07:32:24;;;;;;;865.40;809.67;;;;;;;17.26;45.17;102467.28;5051858;28;20037;-32
2021/11/26 07:34:51;;;;;;;860.55;805.78;;;;;;;17.21;45.25;102450.78;5047700;28;20032;-33
2021/11/26 07:37:18;;;;;;;868.83;813.15;;;;;;;17.25;45.28;102462.06;5045851;28;20024;-33
2021/11/26 07:39:44;;;;;;;866.28;811.35;;;;;;;17.15;45.29;102440.53;5049775;28;20382;-34
2021/11/26 07:42:11;;;;;;;875.80;819.85;;;;;;;15.93;45.07;102248.78;5047624;28;20036;-34
2021/11/26 07:44:38;;;;;;;886.55;829.85;;;;;;;17.18;45.46;102445.69;5049721;28;20035;-31
2021/11/26 07:47:05;;;;;;;871.25;815.72;;;;;;;17.18;45.44;102450.09;5048306;28;20447;-32
2021/11/26 07:49:31;;;;;;;874.60;819.38;;;;;;;17.06;45.38;102430.50;5049064;28;20107;-34
2021/11/26 07:51:58;;;;;;;879.75;823.03;;;;;;;17.10;45.17;102432.84;5046225;28;20032;-36
2021/11/26 07:54:24;;;;;;;867.42;811.47;;;;;;;17.21;45.25;102455.25;5045361;28;20024;-33
2021/11/26 07:56:51;;;;;;;888.65;831.38;;;;;;;17.19;45.27;102451.81;5047169;28;20025;-33
2021/11/26 07:59:17;;;;;;;879.92;823.65;;;;;;;17.14;45.47;102440.63;5051400;28;20086;-34
2021/11/26 08:01:43;;;;;;;887.80;830.35;;;;;;;16.79;45.43;102382.53;5050527;28;20170;-32
2021/11/26 08:04:10;;;;;;;867.65;811.35;;;;;;;17.09;45.45;102428.50;5050410;28;20061;-32
2021/11/26 08:06:36;;;;;;;861.65;806.88;;;;;;;17.14;45.52;102443.28;5050050;28;20461;-33
2021/11/26 08:09:06;;;;;;;864.88;809.88;;;;;;;17.12;45.38;102423.94;5049756;28;20091;-34
2021/11/26 08:11:33;;;;;;;864.05;809.08;;;;;;;17.11;45.53;102428.41;5052495;28;20044;-35
2021/11/26 08:13:59;;;;;;;878.38;822.17;;;;;;;17.12;45.46;102439.88;5052912;28;20028;-35
2021/11/26 08:16:26;;;;;;;861.97;807.15;;;;;;;17.13;45.36;102436.28;5051139;28;20056;-32
2021/11/26 08:18:52;;;;;;;869.65;814.17;;;;;;;17.10;45.38;102439.97;5049311;28;20032;-32
2021/11/26 08:21:18;;;;;;;874.67;818.80;;;;;;;17.07;45.30;102422.44;5052550;28;20070;-35
2021/11/26 08:23:44;;;;;;;874.92;818.90;;;;;;;17.12;45.32;102426.59;5029119;28;20033;-33
2021/11/26 08:26:11;;;;;;;862.30;806.63;;;;;;;17.04;45.42;102416.47;5045167;28;20049;-33
2021/11/26 08:28:37;;;;;;;860.90;806.58;;;;;;;16.93;45.51;102414.44;5029904;28;20425;-33
2021/11/26 08:31:03;;;;;;;863.80;808.72;;;;;;;17.09;45.33;102420.53;5047674;28;20029;-32
2021/11/26 08:33:29;;;;;;;880.17;824.00;;;;;;;17.08;45.55;102410.84;5050727;28;20021;-34
2021/11/26 08:35:56;;;;;;;847.22;793.17;;;;;;;17.04;45.49;102401.38;5049761;28;20025;-33
2021/11/26 08:38:22;;;;;;;851.97;797.83;;;;;;;16.64;45.37;102371.88;5051670;28;20246;-32
2021/11/26 08:40:48;;;;;;;871.75;815.97;;;;;;;17.02;45.38;102405.06;5050228;28;20078;-35
2021/11/26 08:43:15;;;;;;;888.03;831.28;;;;;;;17.03;45.51;102404.13;5052650;28;20036;-32
2021/11/26 08:45:41;;;;;;;866.20;811.10;;;;;;;17.01;45.52;102409.50;5053016;28;20028;-32
2021/11/26 08:48:07;;;;;;;867.25;812.55;;;;;;;17.07;45.38;102405.63;5047661;28;20021;-35
2021/11/26 08:50:36;;;;;;;866.42;811.78;;;;;;;16.86;45.41;102365.31;5047022;28;20063;-33
2021/11/26 08:53:05;;;;;;;875.90;819.53;;;;;;;17.05;45.37;102392.44;5048346;28;20035;-35
2021/11/26 08:55:31;;;;;;;908.40;849.75;;;;;;;17.02;45.49;102386.47;5066566;28;20021;-35
2021/11/26 08:57:58;;;;;;;853.05;798.92;;;;;;;16.88;45.48;102363.44;5037952;28;20021;-33
2021/11/26 09:00:28;;;;;;;897.00;839.10;;;;;;;16.94;45.69;102379.00;5050434;28;20108;-32
2021/11/26 09:02:55;;;;;;;878.60;822.47;;;;;;;16.97;45.62;102384.13;5049361;28;20032;-35
2021/11/26 09:05:22;;;;;;;861.45;806.72;;;;;;;16.83;45.50;102355.75;5055721;28;20029;-33
2021/11/26 09:07:48;;;;;;;872.58;817.00;;;;;;;16.97;45.42;102376.16;5071786;28;20074;-33
2021/11/26 09:10:15;;;;;;;845.78;791.95;;;;;;;16.91;45.72;102372.06;5060527;28;20083;-31
2021/11/26 09:12:41;;;;;;;876.03;819.65;;;;;;;16.94;45.63;102376.34;5055154;28;20029;-32
2021/11/26 09:15:08;;;;;;;851.53;797.20;;;;;;;16.92;45.71;102368.47;5044470;28;20065;-32
2021/11/26 09:17:34;;;;;;;870.05;814.50;;;;;;;16.99;45.57;102371.59;5042497;28;20020;-33
2021/11/26 09:20:00;;;;;;;883.00;826.60;;;;;;;16.97;45.52;102373.50;5055409;28;20183;-35
2021/11/26 09:22:30;;;;;;;873.00;817.47;;;;;;;16.97;45.55;102370.84;5052563;28;20020;-34
2021/11/26 09:24:57;;;;;;;882.85;825.88;;;;;;;16.94;45.52;102378.13;5048281;28;20025;-33
2021/11/26 09:27:23;;;;;;;878.05;821.92;;;;;;;16.91;45.65;102380.03;5046103;28;20110;-34
2021/11/26 09:29:49;;;;;;;865.88;810.58;;;;;;;16.92;45.73;102383.53;5048374;28;20017;-33
2021/11/26 09:32:15;;;;;;;864.55;810.13;;;;;;;16.90;45.74;102383.63;5047657;28;20033;-34
2021/11/26 09:34:41;;;;;;;883.00;827.00;;;;;;;16.45;45.65;102315.56;5044271;28;20111;-35
2021/11/26 09:37:08;;;;;;;860.65;805.35;;;;;;;16.86;45.83;102390.06;5041187;28;20036;-33
2021/11/26 09:39:34;;;;;;;865.75;810.30;;;;;;;16.71;45.72;102372.38;5049759;28;20429;-32
2021/11/26 09:42:00;;;;;;;886.30;829.28;;;;;;;16.84;45.76;102384.00;5063573;28;20037;-35
2021/11/26 09:44:31;;;;;;;869.17;814.00;;;;;;;16.87;45.66;102375.00;5052112;28;20052;-34
2021/11/26 09:46:58;;;;;;;872.72;816.95;;;;;;;16.89;45.72;102375.75;5049782;28;20032;-34
2021/11/26 09:49:24;;;;;;;883.47;827.05;;;;;;;16.91;45.59;102372.06;5052269;28;20120;-31
2021/11/26 09:51:50;;;;;;;862.38;807.17;;;;;;;16.85;45.66;102374.25;5053167;28;20036;-32
2021/11/26 09:54:16;;;;;;;888.95;831.72;;;;;;;16.87;45.68;102388.25;5049091;28;20056;-33
2021/11/26 09:56:42;;;;;;;880.58;824.35;;;;;;;16.87;45.72;102372.34;5052709;28;20025;-36
2021/11/26 09:59:09;;;;;;;864.58;808.97;;;;;;;16.82;45.77;102369.06;5048872;28;20032;-33
2021/11/26 10:01:35;;;;;;;882.63;825.90;;;;;;;16.80;45.84;102363.00;5043828;28;20123;-33
2021/11/26 10:04:01;;;;;;;861.50;806.40;;;;;;;16.75;45.98;102357.97;5052188;28;20029;-34
2021/11/26 10:06:37;;;;;;;896.78;840.03;;;;;;;16.77;45.89;102373.81;5043320;28;20040;-33
2021/11/26 10:09:07;;;;;;;869.88;813.22;;;;;;;16.78;45.87;102364.91;5041008;28;20102;-34
2021/11/26 10:11:49;;;;;;;899.15;841.17;;;;;;;16.78;45.95;102364.91;5051734;28;20355;-35
2021/11/26 10:14:15;;;;;;;865.90;810.55;;;;;;;16.80;45.79;102366.50;5047328;28;20016;-36
2021/11/26 10:16:54;;;;;;;871.80;816.35;;;;;;;16.81;45.76;102378.84;5047360;28;20029;-32
2021/11/26 10:19:31;;;;;;;886.15;829.65;;;;;;;16.81;45.74;102372.69;5044966;28;20040;-33
2021/11/26 10:21:58;;;;;;;886.55;829.67;;;;;;;16.82;45.54;102363.78;5046193;28;20036;-33
2021/11/26 10:24:24;;;;;;;876.13;820.38;;;;;;;16.77;45.76;102363.19;5043913;28;20107;-33
2021/11/26 10:26:52;;;;;;;881.90;825.28;;;;;;;16.76;45.81;102362.34;5046048;28;20029;-33
2021/11/26 10:29:28;;;;;;;849.85;795.28;;;;;;;16.49;46.04;102323.25;5043377;28;20036;-31
2021/11/26 10:32:06;;;;;;;870.47;814.85;;;;;;;16.70;45.93;102346.81;5045858;28;20048;-34
2021/11/26 10:34:32;;;;;;;885.53;828.58;;;;;;;16.72;45.88;102336.97;5044003;28;20068;-35
2021/11/26 10:36:58;;;;;;;874.10;818.10;;;;;;;16.29;45.74;102265.25;5046422;28;20041;-35
2021/11/26 10:39:25;;;;;;;876.00;820.40;;;;;;;16.71;45.89;102337.88;5048707;28;20094;-33
2021/11/26 10:41:55;;;;;;;883.38;827.13;;;;;;;16.56;45.65;102307.84;5052228;28;20451;-33
2021/11/26 10:44:30;;;;;;;891.08;834.05;;;;;;;16.62;45.86;102322.53;5066260;28;20063;-33
2021/11/26 10:47:15;;;;;;;870.70;814.97;;;;;;;16.71;45.78;102329.94;5053426;28;20040;-32
2021/11/26 10:50:00;;;;;;;872.25;816.90;;;;;;;16.76;45.55;102333.16;5050240;28;20025;-32
2021/11/26 10:58:48;;;;;;;885.58;828.63;;;;;;;16.24;45.73;102257.59;5043019;28;20035;-34